sensor_id;sensor_type;location;lat;lon;timestamp;P1;durP1;ratioP1;P2;durP2;ratioP2
64403;SDS011;50726;54.912;-8.392;2022-11-25T00:01:30;349.55;;;281.00;;
64403;SDS011;50726;54.912;-8.392;2022-11-25T00:03:57;365.73;;;284.25;;
64403;SDS011;50726;54.912;-8.392;2022-11-25T00:06:32;372.52;;;274.42;;
64403;SDS011;50726;54.912;-8.392;2022-11-25T00:09:01;319.40;;;251.82;;
64403;SDS011;50726;54.912;-8.392;2022-11-25T00:11:40;377.80;;;276.20;;
64403;SDS011;50726;54.912;-8.392;2022-11-25T00:14:11;383.08;;;280.98;;
64403;SDS011;50726;54.912;-8.392;2022-11-25T00:21:44;387.48;;;283.42;;
64403;SDS011;50726;54.912;-8.392;2022-11-25T00:24:10;391.77;;;283.45;;
64403;SDS011;50726;54.912;-8.392;2022-11-25T00:26:55;380.88;;;276.02;;
64403;SDS011;50726;54.912;-8.392;2022-11-25T00:29:28;385.27;;;280.70;;
64403;SDS011;50726;54.912;-8.392;2022-11-25T00:31:53;381.50;;;271.15;;
64403;SDS011;50726;54.912;-8.392;2022-11-25T00:36:49;334.17;;;254.88;;
64403;SDS011;50726;54.912;-8.392;2022-11-25T00:39:19;325.65;;;247.98;;
64403;SDS011;50726;54.912;-8.392;2022-11-25T00:41:56;309.48;;;247.43;;
64403;SDS011;50726;54.912;-8.392;2022-11-25T00:44:42;309.20;;;248.40;;
64403;SDS011;50726;54.912;-8.392;2022-11-25T00:49:37;303.48;;;248.93;;
64403;SDS011;50726;54.912;-8.392;2022-11-25T00:52:04;317.42;;;252.05;;
64403;SDS011;50726;54.912;-8.392;2022-11-25T00:54:31;335.63;;;248.00;;
64403;SDS011;50726;54.912;-8.392;2022-11-25T00:56:58;371.63;;;278.67;;
64403;SDS011;50726;54.912;-8.392;2022-11-25T00:59:24;339.77;;;247.90;;
64403;SDS011;50726;54.912;-8.392;2022-11-25T01:04:19;1999.90;;;999.90;;
64403;SDS011;50726;54.912;-8.392;2022-11-25T01:06:48;1999.90;;;999.90;;
64403;SDS011;50726;54.912;-8.392;2022-11-25T01:09:14;1999.90;;;999.90;;
64403;SDS011;50726;54.912;-8.392;2022-11-25T01:11:40;1941.30;;;999.90;;
64403;SDS011;50726;54.912;-8.392;2022-11-25T01:14:06;1747.82;;;999.90;;
64403;SDS011;50726;54.912;-8.392;2022-11-25T01:16:33;1613.47;;;999.90;;
64403;SDS011;50726;54.912;-8.392;2022-11-25T01:19:05;1376.97;;;999.90;;
64403;SDS011;50726;54.912;-8.392;2022-11-25T01:21:31;1131.32;;;999.90;;
64403;SDS011;50726;54.912;-8.392;2022-11-25T01:23:59;1096.53;;;992.95;;
64403;SDS011;50726;54.912;-8.392;2022-11-25T01:26:25;1067.03;;;965.95;;
64403;SDS011;50726;54.912;-8.392;2022-11-25T01:28:59;1093.38;;;992.05;;
64403;SDS011;50726;54.912;-8.392;2022-11-25T01:31:29;1046.45;;;953.22;;
64403;SDS011;50726;54.912;-8.392;2022-11-25T01:34:00;1015.70;;;929.90;;
64403;SDS011;50726;54.912;-8.392;2022-11-25T01:36:32;999.80;;;917.38;;
64403;SDS011;50726;54.912;-8.392;2022-11-25T01:38:58;964.80;;;889.05;;
64403;SDS011;50726;54.912;-8.392;2022-11-25T01:41:29;937.13;;;857.60;;
64403;SDS011;50726;54.912;-8.392;2022-11-25T01:44:16;1182.60;;;999.90;;
64403;SDS011;50726;54.912;-8.392;2022-11-25T01:55:23;618.58;;;566.80;;
64403;SDS011;50726;54.912;-8.392;2022-11-25T01:58:37;577.75;;;527.33;;
64403;SDS011;50726;54.912;-8.392;2022-11-25T02:00:47;562.90;;;513.67;;
64403;SDS011;50726;54.912;-8.392;2022-11-25T02:03:23;593.30;;;542.53;;
64403;SDS011;50726;54.912;-8.392;2022-11-25T02:05:55;474.00;;;427.58;;
64403;SDS011;50726;54.912;-8.392;2022-11-25T02:08:27;380.98;;;339.02;;
64403;SDS011;50726;54.912;-8.392;2022-11-25T02:10:53;356.67;;;253.20;;
64403;SDS011;50726;54.912;-8.392;2022-11-25T02:13:21;349.30;;;261.98;;
64403;SDS011;50726;54.912;-8.392;2022-11-25T02:15:48;353.13;;;265.52;;
64403;SDS011;50726;54.912;-8.392;2022-11-25T02:20:43;356.17;;;271.47;;
64403;SDS011;50726;54.912;-8.392;2022-11-25T02:26:21;357.83;;;282.90;;
64403;SDS011;50726;54.912;-8.392;2022-11-25T02:28:46;355.35;;;280.77;;
64403;SDS011;50726;54.912;-8.392;2022-11-25T02:31:17;375.80;;;286.90;;
64403;SDS011;50726;54.912;-8.392;2022-11-25T02:33:46;369.33;;;284.02;;
64403;SDS011;50726;54.912;-8.392;2022-11-25T02:36:13;378.15;;;293.02;;
64403;SDS011;50726;54.912;-8.392;2022-11-25T02:41:18;366.30;;;280.27;;
64403;SDS011;50726;54.912;-8.392;2022-11-25T02:43:50;357.92;;;265.10;;
64403;SDS011;50726;54.912;-8.392;2022-11-25T02:46:17;333.85;;;258.88;;
64403;SDS011;50726;54.912;-8.392;2022-11-25T02:48:44;338.27;;;244.43;;
64403;SDS011;50726;54.912;-8.392;2022-11-25T02:51:11;349.80;;;238.45;;
64403;SDS011;50726;54.912;-8.392;2022-11-25T02:53:40;338.13;;;238.38;;
64403;SDS011;50726;54.912;-8.392;2022-11-25T02:56:07;343.95;;;241.70;;
64403;SDS011;50726;54.912;-8.392;2022-11-25T02:58:39;320.73;;;233.25;;
64403;SDS011;50726;54.912;-8.392;2022-11-25T03:03:40;311.80;;;232.05;;
64403;SDS011;50726;54.912;-8.392;2022-11-25T03:06:06;315.10;;;240.35;;
64403;SDS011;50726;54.912;-8.392;2022-11-25T03:08:34;325.13;;;245.35;;
64403;SDS011;50726;54.912;-8.392;2022-11-25T03:11:00;332.40;;;259.35;;
64403;SDS011;50726;54.912;-8.392;2022-11-25T03:13:27;330.60;;;261.25;;
64403;SDS011;50726;54.912;-8.392;2022-11-25T03:15:52;304.98;;;253.98;;
64403;SDS011;50726;54.912;-8.392;2022-11-25T03:18:18;299.33;;;250.82;;
64403;SDS011;50726;54.912;-8.392;2022-11-25T03:20:44;328.40;;;256.10;;
64403;SDS011;50726;54.912;-8.392;2022-11-25T03:23:11;332.33;;;255.38;;
64403;SDS011;50726;54.912;-8.392;2022-11-25T03:25:38;349.85;;;264.15;;
64403;SDS011;50726;54.912;-8.392;2022-11-25T03:28:04;318.08;;;251.35;;
64403;SDS011;50726;54.912;-8.392;2022-11-25T03:30:30;370.48;;;282.13;;
64403;SDS011;50726;54.912;-8.392;2022-11-25T03:32:56;378.63;;;300.27;;
64403;SDS011;50726;54.912;-8.392;2022-11-25T03:35:22;382.42;;;280.08;;
64403;SDS011;50726;54.912;-8.392;2022-11-25T03:37:49;348.55;;;253.38;;
64403;SDS011;50726;54.912;-8.392;2022-11-25T03:40:15;402.98;;;271.40;;
64403;SDS011;50726;54.912;-8.392;2022-11-25T03:42:43;406.48;;;271.73;;
64403;SDS011;50726;54.912;-8.392;2022-11-25T03:45:09;389.50;;;259.80;;
64403;SDS011;50726;54.912;-8.392;2022-11-25T03:47:37;396.27;;;256.90;;
64403;SDS011;50726;54.912;-8.392;2022-11-25T03:50:04;393.00;;;259.45;;
64403;SDS011;50726;54.912;-8.392;2022-11-25T03:55:02;408.50;;;255.77;;
64403;SDS011;50726;54.912;-8.392;2022-11-25T03:57:28;377.85;;;237.63;;
64403;SDS011;50726;54.912;-8.392;2022-11-25T03:59:55;358.75;;;235.10;;
64403;SDS011;50726;54.912;-8.392;2022-11-25T04:02:23;373.08;;;265.92;;
64403;SDS011;50726;54.912;-8.392;2022-11-25T04:04:48;380.38;;;265.30;;
64403;SDS011;50726;54.912;-8.392;2022-11-25T04:07:14;384.52;;;259.52;;
64403;SDS011;50726;54.912;-8.392;2022-11-25T04:09:40;380.02;;;267.90;;
64403;SDS011;50726;54.912;-8.392;2022-11-25T04:12:05;388.00;;;267.83;;
64403;SDS011;50726;54.912;-8.392;2022-11-25T04:14:50;374.98;;;249.82;;
64403;SDS011;50726;54.912;-8.392;2022-11-25T04:17:15;361.75;;;246.93;;
64403;SDS011;50726;54.912;-8.392;2022-11-25T04:19:41;402.85;;;248.48;;
64403;SDS011;50726;54.912;-8.392;2022-11-25T04:22:07;372.60;;;247.63;;
64403;SDS011;50726;54.912;-8.392;2022-11-25T04:24:33;390.23;;;253.52;;
64403;SDS011;50726;54.912;-8.392;2022-11-25T04:27:00;387.17;;;251.93;;
64403;SDS011;50726;54.912;-8.392;2022-11-25T04:29:26;398.88;;;258.90;;
64403;SDS011;50726;54.912;-8.392;2022-11-25T04:31:52;379.85;;;248.10;;
64403;SDS011;50726;54.912;-8.392;2022-11-25T04:34:18;380.73;;;278.65;;
64403;SDS011;50726;54.912;-8.392;2022-11-25T04:36:43;370.75;;;279.60;;
64403;SDS011;50726;54.912;-8.392;2022-11-25T04:39:09;376.88;;;277.90;;
64403;SDS011;50726;54.912;-8.392;2022-11-25T04:41:38;357.42;;;275.30;;
64403;SDS011;50726;54.912;-8.392;2022-11-25T04:44:04;366.67;;;270.80;;
64403;SDS011;50726;54.912;-8.392;2022-11-25T04:46:32;374.38;;;272.70;;
64403;SDS011;50726;54.912;-8.392;2022-11-25T04:49:03;374.05;;;278.67;;
64403;SDS011;50726;54.912;-8.392;2022-11-25T04:51:30;377.70;;;277.33;;
64403;SDS011;50726;54.912;-8.392;2022-11-25T04:53:58;383.50;;;268.85;;
64403;SDS011;50726;54.912;-8.392;2022-11-25T04:56:23;378.63;;;264.08;;
64403;SDS011;50726;54.912;-8.392;2022-11-25T04:58:50;396.17;;;267.10;;
64403;SDS011;50726;54.912;-8.392;2022-11-25T05:01:37;375.40;;;270.17;;
64403;SDS011;50726;54.912;-8.392;2022-11-25T05:04:07;385.95;;;269.10;;
64403;SDS011;50726;54.912;-8.392;2022-11-25T05:09:08;386.13;;;264.23;;
64403;SDS011;50726;54.912;-8.392;2022-11-25T05:19:09;367.10;;;268.85;;
64403;SDS011;50726;54.912;-8.392;2022-11-25T05:21:35;366.92;;;267.67;;
64403;SDS011;50726;54.912;-8.392;2022-11-25T05:24:03;358.08;;;271.30;;
64403;SDS011;50726;54.912;-8.392;2022-11-25T05:26:29;380.83;;;272.48;;
64403;SDS011;50726;54.912;-8.392;2022-11-25T05:28:57;399.73;;;260.60;;
64403;SDS011;50726;54.912;-8.392;2022-11-25T05:31:23;1999.90;;;999.90;;
64403;SDS011;50726;54.912;-8.392;2022-11-25T05:33:48;1999.90;;;999.90;;
64403;SDS011;50726;54.912;-8.392;2022-11-25T05:36:15;1999.90;;;999.90;;
64403;SDS011;50726;54.912;-8.392;2022-11-25T05:38:42;1999.90;;;999.90;;
64403;SDS011;50726;54.912;-8.392;2022-11-25T05:41:09;1999.90;;;999.90;;
64403;SDS011;50726;54.912;-8.392;2022-11-25T05:43:35;1999.90;;;999.90;;
64403;SDS011;50726;54.912;-8.392;2022-11-25T05:46:05;1999.90;;;999.90;;
64403;SDS011;50726;54.912;-8.392;2022-11-25T05:48:32;1999.90;;;999.90;;
64403;SDS011;50726;54.912;-8.392;2022-11-25T05:51:04;1999.90;;;999.90;;
64403;SDS011;50726;54.912;-8.392;2022-11-25T05:53:31;1999.90;;;999.90;;
64403;SDS011;50726;54.912;-8.392;2022-11-25T05:56:01;1999.90;;;999.90;;
64403;SDS011;50726;54.912;-8.392;2022-11-25T05:58:29;1999.90;;;999.90;;
64403;SDS011;50726;54.912;-8.392;2022-11-25T06:00:55;1999.90;;;999.90;;
64403;SDS011;50726;54.912;-8.392;2022-11-25T06:03:28;1999.90;;;999.90;;
64403;SDS011;50726;54.912;-8.392;2022-11-25T06:05:55;1999.90;;;999.90;;
64403;SDS011;50726;54.912;-8.392;2022-11-25T06:08:21;1999.90;;;999.90;;
64403;SDS011;50726;54.912;-8.392;2022-11-25T06:10:47;1999.90;;;999.90;;
64403;SDS011;50726;54.912;-8.392;2022-11-25T06:13:12;1999.90;;;999.90;;
64403;SDS011;50726;54.912;-8.392;2022-11-25T06:18:10;1999.90;;;999.90;;
64403;SDS011;50726;54.912;-8.392;2022-11-25T06:20:38;1999.90;;;999.90;;
64403;SDS011;50726;54.912;-8.392;2022-11-25T06:23:04;1999.90;;;999.90;;
64403;SDS011;50726;54.912;-8.392;2022-11-25T06:25:31;1999.90;;;999.90;;
64403;SDS011;50726;54.912;-8.392;2022-11-25T06:27:58;1999.90;;;999.90;;
64403;SDS011;50726;54.912;-8.392;2022-11-25T06:30:24;1999.90;;;999.90;;
64403;SDS011;50726;54.912;-8.392;2022-11-25T06:32:52;1999.90;;;999.90;;
64403;SDS011;50726;54.912;-8.392;2022-11-25T06:35:20;1999.90;;;999.90;;
64403;SDS011;50726;54.912;-8.392;2022-11-25T06:37:48;1999.90;;;999.90;;
64403;SDS011;50726;54.912;-8.392;2022-11-25T06:40:14;1999.90;;;999.90;;
64403;SDS011;50726;54.912;-8.392;2022-11-25T06:42:41;1999.90;;;999.90;;
64403;SDS011;50726;54.912;-8.392;2022-11-25T06:45:07;1999.90;;;999.90;;
64403;SDS011;50726;54.912;-8.392;2022-11-25T06:47:34;1999.90;;;999.90;;
64403;SDS011;50726;54.912;-8.392;2022-11-25T06:50:00;1999.90;;;999.90;;
64403;SDS011;50726;54.912;-8.392;2022-11-25T06:52:29;1999.90;;;999.90;;
64403;SDS011;50726;54.912;-8.392;2022-11-25T06:54:56;1999.90;;;999.90;;
64403;SDS011;50726;54.912;-8.392;2022-11-25T06:57:22;1999.90;;;999.90;;
64403;SDS011;50726;54.912;-8.392;2022-11-25T06:59:48;1999.90;;;999.90;;
64403;SDS011;50726;54.912;-8.392;2022-11-25T07:02:16;1999.90;;;999.90;;
64403;SDS011;50726;54.912;-8.392;2022-11-25T07:04:43;1999.90;;;999.90;;
64403;SDS011;50726;54.912;-8.392;2022-11-25T07:07:12;1999.90;;;999.90;;
64403;SDS011;50726;54.912;-8.392;2022-11-25T07:09:37;1999.90;;;999.90;;
64403;SDS011;50726;54.912;-8.392;2022-11-25T07:12:03;1999.90;;;999.90;;
64403;SDS011;50726;54.912;-8.392;2022-11-25T07:14:30;1999.90;;;999.90;;
64403;SDS011;50726;54.912;-8.392;2022-11-25T07:22:00;1999.90;;;999.90;;
64403;SDS011;50726;54.912;-8.392;2022-11-25T07:24:28;1999.90;;;999.90;;
64403;SDS011;50726;54.912;-8.392;2022-11-25T07:26:53;1999.90;;;999.90;;
64403;SDS011;50726;54.912;-8.392;2022-11-25T07:29:19;1093.70;;;990.13;;
64403;SDS011;50726;54.912;-8.392;2022-11-25T07:31:45;379.25;;;315.30;;
64403;SDS011;50726;54.912;-8.392;2022-11-25T07:34:12;355.10;;;310.92;;
64403;SDS011;50726;54.912;-8.392;2022-11-25T07:36:40;383.50;;;313.83;;
64403;SDS011;50726;54.912;-8.392;2022-11-25T07:39:09;349.40;;;310.83;;
64403;SDS011;50726;54.912;-8.392;2022-11-25T07:44:09;347.45;;;310.35;;
64403;SDS011;50726;54.912;-8.392;2022-11-25T07:46:47;352.83;;;314.92;;
64403;SDS011;50726;54.912;-8.392;2022-11-25T07:49:16;351.40;;;316.15;;
64403;SDS011;50726;54.912;-8.392;2022-11-25T07:51:48;351.52;;;316.02;;
64403;SDS011;50726;54.912;-8.392;2022-11-25T07:54:22;349.60;;;315.00;;
64403;SDS011;50726;54.912;-8.392;2022-11-25T07:56:53;346.38;;;315.25;;
64403;SDS011;50726;54.912;-8.392;2022-11-25T08:01:52;357.35;;;328.60;;
64403;SDS011;50726;54.912;-8.392;2022-11-25T08:04:19;1323.70;;;734.65;;
64403;SDS011;50726;54.912;-8.392;2022-11-25T08:06:47;1999.90;;;999.90;;
64403;SDS011;50726;54.912;-8.392;2022-11-25T08:09:18;1999.90;;;999.90;;
64403;SDS011;50726;54.912;-8.392;2022-11-25T08:11:56;1577.40;;;999.90;;
64403;SDS011;50726;54.912;-8.392;2022-11-25T08:16:51;523.85;;;476.40;;
64403;SDS011;50726;54.912;-8.392;2022-11-25T08:19:21;354.70;;;271.75;;
64403;SDS011;50726;54.912;-8.392;2022-11-25T08:21:47;385.00;;;262.92;;
64403;SDS011;50726;54.912;-8.392;2022-11-25T08:24:18;360.77;;;251.70;;
64403;SDS011;50726;54.912;-8.392;2022-11-25T08:26:45;371.90;;;254.02;;
64403;SDS011;50726;54.912;-8.392;2022-11-25T08:29:17;363.95;;;249.30;;
64403;SDS011;50726;54.912;-8.392;2022-11-25T08:31:43;360.83;;;254.98;;
64403;SDS011;50726;54.912;-8.392;2022-11-25T08:34:10;370.10;;;255.75;;
64403;SDS011;50726;54.912;-8.392;2022-11-25T08:36:46;361.35;;;258.08;;
64403;SDS011;50726;54.912;-8.392;2022-11-25T08:44:13;1999.90;;;999.90;;
64403;SDS011;50726;54.912;-8.392;2022-11-25T08:46:39;1999.90;;;999.90;;
64403;SDS011;50726;54.912;-8.392;2022-11-25T08:49:06;1999.90;;;999.90;;
64403;SDS011;50726;54.912;-8.392;2022-11-25T08:51:36;1999.90;;;999.90;;
64403;SDS011;50726;54.912;-8.392;2022-11-25T08:54:03;1999.90;;;999.90;;
64403;SDS011;50726;54.912;-8.392;2022-11-25T08:56:31;1999.90;;;999.90;;
64403;SDS011;50726;54.912;-8.392;2022-11-25T08:58:56;1999.90;;;999.90;;
64403;SDS011;50726;54.912;-8.392;2022-11-25T09:01:24;1999.90;;;999.90;;
64403;SDS011;50726;54.912;-8.392;2022-11-25T09:03:52;1999.90;;;999.90;;
64403;SDS011;50726;54.912;-8.392;2022-11-25T09:06:24;1999.90;;;999.90;;
64403;SDS011;50726;54.912;-8.392;2022-11-25T09:08:53;1999.90;;;999.90;;
64403;SDS011;50726;54.912;-8.392;2022-11-25T09:11:20;1999.90;;;999.90;;
64403;SDS011;50726;54.912;-8.392;2022-11-25T09:13:47;1999.90;;;999.90;;
64403;SDS011;50726;54.912;-8.392;2022-11-25T09:16:13;1999.90;;;999.90;;
64403;SDS011;50726;54.912;-8.392;2022-11-25T09:18:40;1999.90;;;999.90;;
64403;SDS011;50726;54.912;-8.392;2022-11-25T09:21:07;1999.90;;;999.90;;
64403;SDS011;50726;54.912;-8.392;2022-11-25T09:23:34;1999.90;;;999.90;;
64403;SDS011;50726;54.912;-8.392;2022-11-25T09:26:07;1999.90;;;999.90;;
64403;SDS011;50726;54.912;-8.392;2022-11-25T09:28:43;1999.90;;;999.90;;
64403;SDS011;50726;54.912;-8.392;2022-11-25T09:31:09;1999.90;;;999.90;;
64403;SDS011;50726;54.912;-8.392;2022-11-25T09:33:34;1999.90;;;999.90;;
64403;SDS011;50726;54.912;-8.392;2022-11-25T09:36:01;1999.90;;;999.90;;
64403;SDS011;50726;54.912;-8.392;2022-11-25T09:38:26;1562.85;;;999.90;;
64403;SDS011;50726;54.912;-8.392;2022-11-25T09:41:12;345.42;;;255.50;;
64403;SDS011;50726;54.912;-8.392;2022-11-25T09:44:15;353.33;;;272.75;;
64403;SDS011;50726;54.912;-8.392;2022-11-25T09:47:15;369.23;;;270.85;;
64403;SDS011;50726;54.912;-8.392;2022-11-25T09:53:11;360.98;;;231.77;;
64403;SDS011;50726;54.912;-8.392;2022-11-25T09:56:02;331.95;;;228.38;;
64403;SDS011;50726;54.912;-8.392;2022-11-25T10:01:16;323.95;;;230.30;;
64403;SDS011;50726;54.912;-8.392;2022-11-25T10:03:51;344.52;;;230.50;;
64403;SDS011;50726;54.912;-8.392;2022-11-25T10:06:22;372.13;;;233.77;;
64403;SDS011;50726;54.912;-8.392;2022-11-25T10:22:25;338.83;;;221.02;;
64403;SDS011;50726;54.912;-8.392;2022-11-25T10:24:56;362.98;;;234.95;;
64403;SDS011;50726;54.912;-8.392;2022-11-25T10:30:20;313.38;;;212.65;;
64403;SDS011;50726;54.912;-8.392;2022-11-25T10:35:44;347.35;;;224.85;;
64403;SDS011;50726;54.912;-8.392;2022-11-25T10:38:21;338.60;;;221.48;;
64403;SDS011;50726;54.912;-8.392;2022-11-25T10:40:59;360.73;;;222.80;;
64403;SDS011;50726;54.912;-8.392;2022-11-25T10:43:28;333.08;;;237.10;;
64403;SDS011;50726;54.912;-8.392;2022-11-25T10:51:41;330.13;;;209.70;;
64403;SDS011;50726;54.912;-8.392;2022-11-25T10:54:12;313.58;;;212.02;;
64403;SDS011;50726;54.912;-8.392;2022-11-25T10:56:50;343.80;;;224.80;;
64403;SDS011;50726;54.912;-8.392;2022-11-25T10:59:30;705.17;;;646.72;;
64403;SDS011;50726;54.912;-8.392;2022-11-25T11:02:15;346.45;;;215.10;;
64403;SDS011;50726;54.912;-8.392;2022-11-25T11:07:23;322.48;;;214.95;;
64403;SDS011;50726;54.912;-8.392;2022-11-25T11:09:51;323.60;;;190.10;;
64403;SDS011;50726;54.912;-8.392;2022-11-25T11:12:27;336.45;;;190.85;;
64403;SDS011;50726;54.912;-8.392;2022-11-25T11:15:13;304.88;;;172.57;;
64403;SDS011;50726;54.912;-8.392;2022-11-25T11:17:40;302.98;;;176.77;;
64403;SDS011;50726;54.912;-8.392;2022-11-25T11:22:31;310.73;;;192.75;;
64403;SDS011;50726;54.912;-8.392;2022-11-25T11:25:23;290.63;;;184.93;;
64403;SDS011;50726;54.912;-8.392;2022-11-25T11:27:51;302.35;;;184.82;;
64403;SDS011;50726;54.912;-8.392;2022-11-25T11:30:18;295.92;;;166.95;;
64403;SDS011;50726;54.912;-8.392;2022-11-25T11:33:05;302.85;;;185.57;;
64403;SDS011;50726;54.912;-8.392;2022-11-25T11:36:07;312.15;;;185.68;;
64403;SDS011;50726;54.912;-8.392;2022-11-25T11:44:24;308.55;;;181.95;;
64403;SDS011;50726;54.912;-8.392;2022-11-25T11:54:53;307.35;;;188.40;;
64403;SDS011;50726;54.912;-8.392;2022-11-25T12:00:15;296.15;;;168.60;;
64403;SDS011;50726;54.912;-8.392;2022-11-25T12:02:48;288.08;;;166.35;;
64403;SDS011;50726;54.912;-8.392;2022-11-25T12:05:25;307.13;;;172.00;;
64403;SDS011;50726;54.912;-8.392;2022-11-25T12:13:14;286.25;;;166.68;;
64403;SDS011;50726;54.912;-8.392;2022-11-25T12:18:34;291.13;;;170.32;;
64403;SDS011;50726;54.912;-8.392;2022-11-25T12:21:07;275.00;;;172.27;;
64403;SDS011;50726;54.912;-8.392;2022-11-25T12:29:35;278.45;;;164.40;;
64403;SDS011;50726;54.912;-8.392;2022-11-25T12:34:46;273.90;;;171.95;;
64403;SDS011;50726;54.912;-8.392;2022-11-25T12:37:17;265.25;;;178.20;;
64403;SDS011;50726;54.912;-8.392;2022-11-25T12:43:31;282.92;;;171.20;;
64403;SDS011;50726;54.912;-8.392;2022-11-25T12:46:12;280.75;;;173.48;;
64403;SDS011;50726;54.912;-8.392;2022-11-25T12:48:59;284.95;;;176.10;;
64403;SDS011;50726;54.912;-8.392;2022-11-25T12:51:48;318.58;;;182.32;;
64403;SDS011;50726;54.912;-8.392;2022-11-25T13:00:18;296.35;;;183.63;;
64403;SDS011;50726;54.912;-8.392;2022-11-25T13:02:58;286.27;;;187.35;;
64403;SDS011;50726;54.912;-8.392;2022-11-25T13:08:28;296.77;;;180.98;;
64403;SDS011;50726;54.912;-8.392;2022-11-25T13:13:31;273.02;;;184.30;;
64403;SDS011;50726;54.912;-8.392;2022-11-25T13:16:07;274.58;;;186.05;;
64403;SDS011;50726;54.912;-8.392;2022-11-25T13:18:37;291.33;;;195.82;;
64403;SDS011;50726;54.912;-8.392;2022-11-25T13:21:06;282.13;;;196.95;;
64403;SDS011;50726;54.912;-8.392;2022-11-25T13:23:42;293.70;;;200.90;;
64403;SDS011;50726;54.912;-8.392;2022-11-25T13:26:46;293.48;;;192.23;;
64403;SDS011;50726;54.912;-8.392;2022-11-25T13:31:57;279.85;;;187.57;;
64403;SDS011;50726;54.912;-8.392;2022-11-25T13:34:27;313.08;;;185.88;;
64403;SDS011;50726;54.912;-8.392;2022-11-25T13:39:31;308.13;;;182.07;;
64403;SDS011;50726;54.912;-8.392;2022-11-25T13:54:51;292.90;;;172.85;;
64403;SDS011;50726;54.912;-8.392;2022-11-25T13:57:26;307.92;;;173.30;;
64403;SDS011;50726;54.912;-8.392;2022-11-25T13:59:59;313.65;;;178.52;;
64403;SDS011;50726;54.912;-8.392;2022-11-25T14:02:32;319.58;;;174.98;;
64403;SDS011;50726;54.912;-8.392;2022-11-25T14:24:43;302.52;;;188.20;;
64403;SDS011;50726;54.912;-8.392;2022-11-25T14:27:18;304.52;;;196.48;;
64403;SDS011;50726;54.912;-8.392;2022-11-25T14:29:51;317.23;;;194.23;;
64403;SDS011;50726;54.912;-8.392;2022-11-25T14:32:25;301.60;;;199.93;;
64403;SDS011;50726;54.912;-8.392;2022-11-25T14:35:19;306.52;;;200.60;;
64403;SDS011;50726;54.912;-8.392;2022-11-25T14:40:30;303.55;;;197.45;;
64403;SDS011;50726;54.912;-8.392;2022-11-25T14:43:04;316.13;;;209.80;;
64403;SDS011;50726;54.912;-8.392;2022-11-25T14:45:36;326.38;;;215.80;;
64403;SDS011;50726;54.912;-8.392;2022-11-25T14:51:03;346.67;;;222.20;;
64403;SDS011;50726;54.912;-8.392;2022-11-25T14:53:38;313.67;;;214.60;;
64403;SDS011;50726;54.912;-8.392;2022-11-25T14:56:06;312.88;;;222.82;;
64403;SDS011;50726;54.912;-8.392;2022-11-25T14:58:33;323.30;;;216.15;;
64403;SDS011;50726;54.912;-8.392;2022-11-25T15:01:04;334.98;;;215.38;;
64403;SDS011;50726;54.912;-8.392;2022-11-25T15:03:32;330.80;;;221.80;;
64403;SDS011;50726;54.912;-8.392;2022-11-25T15:06:04;337.45;;;222.98;;
64403;SDS011;50726;54.912;-8.392;2022-11-25T15:08:41;341.13;;;223.68;;
64403;SDS011;50726;54.912;-8.392;2022-11-25T15:11:13;335.52;;;231.75;;
64403;SDS011;50726;54.912;-8.392;2022-11-25T15:13:44;340.30;;;225.07;;
64403;SDS011;50726;54.912;-8.392;2022-11-25T15:16:21;333.17;;;226.63;;
64403;SDS011;50726;54.912;-8.392;2022-11-25T15:18:57;332.20;;;226.68;;
64403;SDS011;50726;54.912;-8.392;2022-11-25T15:21:29;352.70;;;235.77;;
64403;SDS011;50726;54.912;-8.392;2022-11-25T15:23:59;337.48;;;232.70;;
64403;SDS011;50726;54.912;-8.392;2022-11-25T15:26:28;340.88;;;231.50;;
64403;SDS011;50726;54.912;-8.392;2022-11-25T15:28:57;348.63;;;237.40;;
64403;SDS011;50726;54.912;-8.392;2022-11-25T15:31:25;337.10;;;235.48;;
64403;SDS011;50726;54.912;-8.392;2022-11-25T15:33:55;343.00;;;220.70;;
64403;SDS011;50726;54.912;-8.392;2022-11-25T15:36:24;320.55;;;218.25;;
64403;SDS011;50726;54.912;-8.392;2022-11-25T15:38:50;321.95;;;215.98;;
64403;SDS011;50726;54.912;-8.392;2022-11-25T15:43:48;337.23;;;215.23;;
64403;SDS011;50726;54.912;-8.392;2022-11-25T15:46:18;337.00;;;213.77;;
64403;SDS011;50726;54.912;-8.392;2022-11-25T15:48:46;341.60;;;206.40;;
64403;SDS011;50726;54.912;-8.392;2022-11-25T15:56:52;308.27;;;206.20;;
64403;SDS011;50726;54.912;-8.392;2022-11-25T15:59:40;322.70;;;207.23;;
64403;SDS011;50726;54.912;-8.392;2022-11-25T16:10:18;327.40;;;206.52;;
64403;SDS011;50726;54.912;-8.392;2022-11-25T16:21:23;318.90;;;183.50;;
64403;SDS011;50726;54.912;-8.392;2022-11-25T16:23:53;329.85;;;190.63;;
64403;SDS011;50726;54.912;-8.392;2022-11-25T16:26:29;323.13;;;189.10;;
64403;SDS011;50726;54.912;-8.392;2022-11-25T16:28:58;309.88;;;193.55;;
64403;SDS011;50726;54.912;-8.392;2022-11-25T16:31:26;320.02;;;194.18;;
64403;SDS011;50726;54.912;-8.392;2022-11-25T16:33:57;325.20;;;191.55;;
64403;SDS011;50726;54.912;-8.392;2022-11-25T16:36:33;280.38;;;179.52;;
64403;SDS011;50726;54.912;-8.392;2022-11-25T16:39:00;299.45;;;186.20;;
64403;SDS011;50726;54.912;-8.392;2022-11-25T16:41:26;292.67;;;175.30;;
64403;SDS011;50726;54.912;-8.392;2022-11-25T16:43:51;280.65;;;181.75;;
64403;SDS011;50726;54.912;-8.392;2022-11-25T16:46:18;285.50;;;170.20;;
64403;SDS011;50726;54.912;-8.392;2022-11-25T16:48:44;307.02;;;173.60;;
64403;SDS011;50726;54.912;-8.392;2022-11-25T16:51:18;311.48;;;171.55;;
64403;SDS011;50726;54.912;-8.392;2022-11-25T16:53:45;318.58;;;176.02;;
64403;SDS011;50726;54.912;-8.392;2022-11-25T16:56:17;299.33;;;175.60;;
64403;SDS011;50726;54.912;-8.392;2022-11-25T16:58:48;283.13;;;167.10;;
64403;SDS011;50726;54.912;-8.392;2022-11-25T17:01:14;280.55;;;169.75;;
64403;SDS011;50726;54.912;-8.392;2022-11-25T17:03:41;282.67;;;173.90;;
64403;SDS011;50726;54.912;-8.392;2022-11-25T17:06:29;288.30;;;168.88;;
64403;SDS011;50726;54.912;-8.392;2022-11-25T17:08:54;288.88;;;169.38;;
64403;SDS011;50726;54.912;-8.392;2022-11-25T17:11:25;294.95;;;170.20;;
64403;SDS011;50726;54.912;-8.392;2022-11-25T17:13:55;266.83;;;169.90;;
64403;SDS011;50726;54.912;-8.392;2022-11-25T17:16:24;272.50;;;167.55;;
64403;SDS011;50726;54.912;-8.392;2022-11-25T17:18:52;282.13;;;172.05;;
64403;SDS011;50726;54.912;-8.392;2022-11-25T17:21:19;286.77;;;167.73;;
64403;SDS011;50726;54.912;-8.392;2022-11-25T17:23:51;286.05;;;171.80;;
64403;SDS011;50726;54.912;-8.392;2022-11-25T17:26:18;281.58;;;168.77;;
64403;SDS011;50726;54.912;-8.392;2022-11-25T17:28:54;263.08;;;170.68;;
64403;SDS011;50726;54.912;-8.392;2022-11-25T17:31:24;291.35;;;175.23;;
64403;SDS011;50726;54.912;-8.392;2022-11-25T17:33:52;284.10;;;171.07;;
64403;SDS011;50726;54.912;-8.392;2022-11-25T17:36:17;270.90;;;176.20;;